Terminal Aerodrome Forecast
Issued by NWS

Home | Current Version | Previous Version | Text Only | Print | Product List | Glossary On
Versions: 1 2 3 4 5 6 7 8 9 10 11 12 13 14 15 16 17 18 19 20 21 22 23 24 25 26 27 28 29 30 31 32
000
FTUS45 KBOU 140600 AAA
TAFAPA
TAF AMD
KAPA 140600Z 1406/1506 01012KT P6SM -SN SCT025 OVC035
     FM140700 35010KT 3SM -SN BKN015 OVC025
      TEMPO 1408/1412 1 1/2SM -SN BR BKN008 OVC015
     FM141400 32007KT P6SM -SN SCT012 OVC025
     FM141600 30005KT P6SM VCSH SCT020 BKN045
     FM141800 33009KT P6SM SCT050 BKN090
     FM141900 33007KT P6SM FEW090 SCT220
     FM150100 04008KT P6SM SCT250
     FM150200 10006KT P6SM FEW250=

USA.gov is the U.S. government's official web portal to all federal, state and local government web resources and services.